sensor_id;sensor_type;location;lat;lon;timestamp;P1;durP1;ratioP1;P2;durP2;ratioP2
66927;SDS011;59882;45.624;11.698;2023-04-24T00:02:22;23.60;;;16.45;;
66927;SDS011;59882;45.624;11.698;2023-04-24T00:04:48;24.70;;;15.32;;
66927;SDS011;59882;45.624;11.698;2023-04-24T00:07:14;22.47;;;15.67;;
66927;SDS011;59882;45.624;11.698;2023-04-24T00:09:44;19.55;;;15.45;;
66927;SDS011;59882;45.624;11.698;2023-04-24T00:12:10;24.23;;;15.70;;
66927;SDS011;59882;45.624;11.698;2023-04-24T00:14:36;21.60;;;15.15;;
66927;SDS011;59882;45.624;11.698;2023-04-24T00:17:02;22.13;;;14.60;;
66927;SDS011;59882;45.624;11.698;2023-04-24T00:19:28;20.08;;;15.68;;
66927;SDS011;59882;45.624;11.698;2023-04-24T00:21:54;21.25;;;15.23;;
66927;SDS011;59882;45.624;11.698;2023-04-24T00:24:20;20.35;;;15.85;;
66927;SDS011;59882;45.624;11.698;2023-04-24T00:26:46;24.38;;;15.15;;
66927;SDS011;59882;45.624;11.698;2023-04-24T00:29:12;21.67;;;15.30;;
66927;SDS011;59882;45.624;11.698;2023-04-24T00:31:37;19.13;;;14.20;;
66927;SDS011;59882;45.624;11.698;2023-04-24T00:34:03;20.43;;;14.40;;
66927;SDS011;59882;45.624;11.698;2023-04-24T00:36:29;19.73;;;14.43;;
66927;SDS011;59882;45.624;11.698;2023-04-24T00:38:55;19.92;;;14.68;;
66927;SDS011;59882;45.624;11.698;2023-04-24T00:41:21;20.80;;;14.03;;
66927;SDS011;59882;45.624;11.698;2023-04-24T00:43:47;21.98;;;16.02;;
66927;SDS011;59882;45.624;11.698;2023-04-24T00:46:14;20.10;;;15.10;;
66927;SDS011;59882;45.624;11.698;2023-04-24T00:48:40;22.00;;;16.27;;
66927;SDS011;59882;45.624;11.698;2023-04-24T00:51:06;23.00;;;14.93;;
66927;SDS011;59882;45.624;11.698;2023-04-24T00:53:31;23.73;;;15.38;;
66927;SDS011;59882;45.624;11.698;2023-04-24T00:55:58;22.50;;;15.43;;
66927;SDS011;59882;45.624;11.698;2023-04-24T00:58:24;18.13;;;14.33;;
66927;SDS011;59882;45.624;11.698;2023-04-24T01:00:51;22.48;;;15.20;;
66927;SDS011;59882;45.624;11.698;2023-04-24T01:03:22;19.95;;;15.15;;
66927;SDS011;59882;45.624;11.698;2023-04-24T01:05:51;22.17;;;13.10;;
66927;SDS011;59882;45.624;11.698;2023-04-24T01:08:17;20.45;;;14.68;;
66927;SDS011;59882;45.624;11.698;2023-04-24T01:10:44;18.10;;;14.43;;
66927;SDS011;59882;45.624;11.698;2023-04-24T01:13:11;19.15;;;14.23;;
66927;SDS011;59882;45.624;11.698;2023-04-24T01:15:36;20.98;;;14.43;;
66927;SDS011;59882;45.624;11.698;2023-04-24T01:18:02;16.80;;;13.67;;
66927;SDS011;59882;45.624;11.698;2023-04-24T01:20:28;20.30;;;14.07;;
66927;SDS011;59882;45.624;11.698;2023-04-24T01:22:55;16.52;;;12.55;;
66927;SDS011;59882;45.624;11.698;2023-04-24T01:25:21;19.00;;;13.50;;
66927;SDS011;59882;45.624;11.698;2023-04-24T01:27:47;18.80;;;13.27;;
66927;SDS011;59882;45.624;11.698;2023-04-24T01:30:13;21.30;;;12.60;;
66927;SDS011;59882;45.624;11.698;2023-04-24T01:32:40;18.15;;;13.10;;
66927;SDS011;59882;45.624;11.698;2023-04-24T01:35:09;15.33;;;11.27;;
66927;SDS011;59882;45.624;11.698;2023-04-24T01:37:35;19.98;;;13.55;;
66927;SDS011;59882;45.624;11.698;2023-04-24T01:40:02;21.08;;;13.15;;
66927;SDS011;59882;45.624;11.698;2023-04-24T01:42:29;18.40;;;12.38;;
66927;SDS011;59882;45.624;11.698;2023-04-24T01:44:55;18.15;;;12.35;;
66927;SDS011;59882;45.624;11.698;2023-04-24T01:47:22;16.97;;;11.93;;
66927;SDS011;59882;45.624;11.698;2023-04-24T01:49:49;19.30;;;12.32;;
66927;SDS011;59882;45.624;11.698;2023-04-24T01:52:15;21.70;;;12.85;;
66927;SDS011;59882;45.624;11.698;2023-04-24T01:54:42;15.80;;;12.10;;
66927;SDS011;59882;45.624;11.698;2023-04-24T01:57:08;15.60;;;11.90;;
66927;SDS011;59882;45.624;11.698;2023-04-24T01:59:34;14.20;;;10.68;;
66927;SDS011;59882;45.624;11.698;2023-04-24T02:02:01;16.02;;;10.98;;
66927;SDS011;59882;45.624;11.698;2023-04-24T02:04:27;13.85;;;10.25;;
66927;SDS011;59882;45.624;11.698;2023-04-24T02:06:53;16.10;;;10.13;;
66927;SDS011;59882;45.624;11.698;2023-04-24T02:09:19;12.52;;;10.35;;
66927;SDS011;59882;45.624;11.698;2023-04-24T02:11:45;15.43;;;10.18;;
66927;SDS011;59882;45.624;11.698;2023-04-24T02:14:11;12.97;;;9.63;;
66927;SDS011;59882;45.624;11.698;2023-04-24T02:16:36;15.90;;;10.50;;
66927;SDS011;59882;45.624;11.698;2023-04-24T02:19:02;17.67;;;10.60;;
66927;SDS011;59882;45.624;11.698;2023-04-24T02:21:28;15.63;;;9.75;;
66927;SDS011;59882;45.624;11.698;2023-04-24T02:23:55;17.40;;;10.60;;
66927;SDS011;59882;45.624;11.698;2023-04-24T02:26:21;16.08;;;10.45;;
66927;SDS011;59882;45.624;11.698;2023-04-24T02:28:47;15.40;;;10.70;;
66927;SDS011;59882;45.624;11.698;2023-04-24T02:31:12;15.00;;;10.43;;
66927;SDS011;59882;45.624;11.698;2023-04-24T02:33:38;14.63;;;10.07;;
66927;SDS011;59882;45.624;11.698;2023-04-24T02:36:04;14.53;;;10.00;;
66927;SDS011;59882;45.624;11.698;2023-04-24T02:38:30;14.35;;;10.60;;
66927;SDS011;59882;45.624;11.698;2023-04-24T02:40:55;13.07;;;10.13;;
66927;SDS011;59882;45.624;11.698;2023-04-24T02:43:21;13.25;;;9.07;;
66927;SDS011;59882;45.624;11.698;2023-04-24T02:45:46;12.80;;;9.33;;
66927;SDS011;59882;45.624;11.698;2023-04-24T02:48:13;14.43;;;10.00;;
66927;SDS011;59882;45.624;11.698;2023-04-24T02:50:38;13.47;;;9.17;;
66927;SDS011;59882;45.624;11.698;2023-04-24T02:53:04;12.13;;;8.80;;
66927;SDS011;59882;45.624;11.698;2023-04-24T02:55:29;12.13;;;9.13;;
66927;SDS011;59882;45.624;11.698;2023-04-24T02:57:55;12.40;;;8.25;;
66927;SDS011;59882;45.624;11.698;2023-04-24T03:00:21;14.90;;;8.53;;
66927;SDS011;59882;45.624;11.698;2023-04-24T03:02:46;12.32;;;8.45;;
66927;SDS011;59882;45.624;11.698;2023-04-24T03:05:12;13.37;;;8.67;;
66927;SDS011;59882;45.624;11.698;2023-04-24T03:07:38;12.27;;;9.27;;
66927;SDS011;59882;45.624;11.698;2023-04-24T03:10:04;14.27;;;8.82;;
66927;SDS011;59882;45.624;11.698;2023-04-24T03:12:31;13.88;;;8.57;;
66927;SDS011;59882;45.624;11.698;2023-04-24T03:14:56;13.40;;;8.93;;
66927;SDS011;59882;45.624;11.698;2023-04-24T03:17:22;13.20;;;8.60;;
66927;SDS011;59882;45.624;11.698;2023-04-24T03:19:47;14.10;;;8.50;;
66927;SDS011;59882;45.624;11.698;2023-04-24T03:22:13;10.80;;;8.70;;
66927;SDS011;59882;45.624;11.698;2023-04-24T03:24:39;12.48;;;8.13;;
66927;SDS011;59882;45.624;11.698;2023-04-24T03:27:05;13.90;;;8.63;;
66927;SDS011;59882;45.624;11.698;2023-04-24T03:29:30;11.70;;;8.33;;
66927;SDS011;59882;45.624;11.698;2023-04-24T03:31:56;15.33;;;8.87;;
66927;SDS011;59882;45.624;11.698;2023-04-24T03:34:22;14.88;;;8.95;;
66927;SDS011;59882;45.624;11.698;2023-04-24T03:36:47;13.23;;;8.63;;
66927;SDS011;59882;45.624;11.698;2023-04-24T03:39:13;12.50;;;8.70;;
66927;SDS011;59882;45.624;11.698;2023-04-24T03:41:59;11.37;;;8.33;;
66927;SDS011;59882;45.624;11.698;2023-04-24T03:44:25;11.25;;;7.30;;
66927;SDS011;59882;45.624;11.698;2023-04-24T03:46:50;10.00;;;8.27;;
66927;SDS011;59882;45.624;11.698;2023-04-24T03:49:16;12.70;;;8.40;;
66927;SDS011;59882;45.624;11.698;2023-04-24T03:51:42;11.97;;;7.97;;
66927;SDS011;59882;45.624;11.698;2023-04-24T03:54:07;13.73;;;8.68;;
66927;SDS011;59882;45.624;11.698;2023-04-24T03:56:33;14.20;;;8.63;;
66927;SDS011;59882;45.624;11.698;2023-04-24T03:58:59;13.88;;;8.48;;
66927;SDS011;59882;45.624;11.698;2023-04-24T04:01:25;10.90;;;8.32;;
66927;SDS011;59882;45.624;11.698;2023-04-24T04:03:51;12.00;;;8.70;;
66927;SDS011;59882;45.624;11.698;2023-04-24T04:06:16;15.17;;;8.97;;
66927;SDS011;59882;45.624;11.698;2023-04-24T04:08:43;13.15;;;9.05;;
66927;SDS011;59882;45.624;11.698;2023-04-24T04:11:08;12.17;;;9.37;;
66927;SDS011;59882;45.624;11.698;2023-04-24T04:13:34;13.48;;;9.50;;
66927;SDS011;59882;45.624;11.698;2023-04-24T04:15:59;13.17;;;9.07;;
66927;SDS011;59882;45.624;11.698;2023-04-24T04:18:25;15.05;;;9.32;;
66927;SDS011;59882;45.624;11.698;2023-04-24T04:20:51;12.13;;;9.07;;
66927;SDS011;59882;45.624;11.698;2023-04-24T04:23:16;12.73;;;9.45;;
66927;SDS011;59882;45.624;11.698;2023-04-24T04:25:42;15.23;;;9.97;;
66927;SDS011;59882;45.624;11.698;2023-04-24T04:28:08;14.60;;;9.97;;
66927;SDS011;59882;45.624;11.698;2023-04-24T04:30:33;15.07;;;11.15;;
66927;SDS011;59882;45.624;11.698;2023-04-24T04:32:59;16.23;;;12.10;;
66927;SDS011;59882;45.624;11.698;2023-04-24T04:35:25;15.73;;;11.30;;
66927;SDS011;59882;45.624;11.698;2023-04-24T04:37:51;18.27;;;11.70;;
66927;SDS011;59882;45.624;11.698;2023-04-24T04:40:16;17.07;;;12.37;;
66927;SDS011;59882;45.624;11.698;2023-04-24T04:42:42;15.77;;;12.17;;
66927;SDS011;59882;45.624;11.698;2023-04-24T04:45:10;18.95;;;12.70;;
66927;SDS011;59882;45.624;11.698;2023-04-24T04:47:38;16.67;;;12.55;;
66927;SDS011;59882;45.624;11.698;2023-04-24T04:50:04;18.15;;;12.55;;
66927;SDS011;59882;45.624;11.698;2023-04-24T04:52:30;15.50;;;12.23;;
66927;SDS011;59882;45.624;11.698;2023-04-24T04:54:56;15.70;;;10.60;;
66927;SDS011;59882;45.624;11.698;2023-04-24T04:57:22;18.42;;;11.82;;
66927;SDS011;59882;45.624;11.698;2023-04-24T04:59:47;18.20;;;11.70;;
66927;SDS011;59882;45.624;11.698;2023-04-24T05:02:13;18.75;;;12.25;;
66927;SDS011;59882;45.624;11.698;2023-04-24T05:04:39;14.73;;;12.13;;
66927;SDS011;59882;45.624;11.698;2023-04-24T05:07:05;15.57;;;11.63;;
66927;SDS011;59882;45.624;11.698;2023-04-24T05:09:31;16.98;;;12.63;;
66927;SDS011;59882;45.624;11.698;2023-04-24T05:11:57;15.73;;;11.50;;
66927;SDS011;59882;45.624;11.698;2023-04-24T05:14:22;18.23;;;13.13;;
66927;SDS011;59882;45.624;11.698;2023-04-24T05:16:48;16.48;;;12.18;;
66927;SDS011;59882;45.624;11.698;2023-04-24T05:19:13;17.60;;;12.13;;
66927;SDS011;59882;45.624;11.698;2023-04-24T05:21:40;19.23;;;13.20;;
66927;SDS011;59882;45.624;11.698;2023-04-24T05:24:05;15.82;;;12.48;;
66927;SDS011;59882;45.624;11.698;2023-04-24T05:26:31;18.75;;;12.48;;
66927;SDS011;59882;45.624;11.698;2023-04-24T05:28:57;18.13;;;12.87;;
66927;SDS011;59882;45.624;11.698;2023-04-24T05:31:23;16.13;;;12.63;;
66927;SDS011;59882;45.624;11.698;2023-04-24T05:33:48;18.88;;;14.18;;
66927;SDS011;59882;45.624;11.698;2023-04-24T05:36:14;19.63;;;14.03;;
66927;SDS011;59882;45.624;11.698;2023-04-24T05:38:40;20.70;;;13.38;;
66927;SDS011;59882;45.624;11.698;2023-04-24T05:41:05;17.27;;;12.73;;
66927;SDS011;59882;45.624;11.698;2023-04-24T05:43:31;16.48;;;12.38;;
66927;SDS011;59882;45.624;11.698;2023-04-24T05:45:56;17.70;;;12.17;;
66927;SDS011;59882;45.624;11.698;2023-04-24T05:48:22;15.67;;;11.73;;
66927;SDS011;59882;45.624;11.698;2023-04-24T05:50:48;18.33;;;12.63;;
66927;SDS011;59882;45.624;11.698;2023-04-24T05:53:14;16.42;;;11.75;;
66927;SDS011;59882;45.624;11.698;2023-04-24T05:55:39;19.27;;;12.37;;
66927;SDS011;59882;45.624;11.698;2023-04-24T05:58:05;22.17;;;14.70;;
66927;SDS011;59882;45.624;11.698;2023-04-24T06:00:31;21.57;;;14.60;;
66927;SDS011;59882;45.624;11.698;2023-04-24T06:02:57;21.20;;;14.55;;
66927;SDS011;59882;45.624;11.698;2023-04-24T06:05:23;15.90;;;12.23;;
66927;SDS011;59882;45.624;11.698;2023-04-24T06:07:50;13.00;;;9.40;;
66927;SDS011;59882;45.624;11.698;2023-04-24T06:10:16;8.73;;;6.27;;
66927;SDS011;59882;45.624;11.698;2023-04-24T06:12:41;9.93;;;7.75;;
66927;SDS011;59882;45.624;11.698;2023-04-24T06:15:07;10.53;;;7.43;;
66927;SDS011;59882;45.624;11.698;2023-04-24T06:17:33;14.45;;;8.88;;
66927;SDS011;59882;45.624;11.698;2023-04-24T06:19:59;15.88;;;10.55;;
66927;SDS011;59882;45.624;11.698;2023-04-24T06:22:25;14.77;;;12.00;;
66927;SDS011;59882;45.624;11.698;2023-04-24T06:24:50;20.00;;;13.93;;
66927;SDS011;59882;45.624;11.698;2023-04-24T06:27:16;22.02;;;16.23;;
66927;SDS011;59882;45.624;11.698;2023-04-24T06:29:41;21.53;;;13.73;;
66927;SDS011;59882;45.624;11.698;2023-04-24T06:32:07;16.67;;;12.25;;
66927;SDS011;59882;45.624;11.698;2023-04-24T06:34:33;18.47;;;12.10;;
66927;SDS011;59882;45.624;11.698;2023-04-24T06:36:59;17.30;;;12.63;;
66927;SDS011;59882;45.624;11.698;2023-04-24T06:39:25;15.93;;;12.43;;
66927;SDS011;59882;45.624;11.698;2023-04-24T06:41:51;13.53;;;11.00;;
66927;SDS011;59882;45.624;11.698;2023-04-24T06:44:16;15.70;;;11.07;;
66927;SDS011;59882;45.624;11.698;2023-04-24T06:46:42;14.70;;;9.20;;
66927;SDS011;59882;45.624;11.698;2023-04-24T06:49:07;11.07;;;7.53;;
66927;SDS011;59882;45.624;11.698;2023-04-24T06:51:33;12.13;;;6.70;;
66927;SDS011;59882;45.624;11.698;2023-04-24T06:53:59;9.53;;;6.27;;
66927;SDS011;59882;45.624;11.698;2023-04-24T06:56:25;11.95;;;7.47;;
66927;SDS011;59882;45.624;11.698;2023-04-24T06:58:51;9.00;;;6.43;;
66927;SDS011;59882;45.624;11.698;2023-04-24T07:01:17;11.27;;;7.83;;
66927;SDS011;59882;45.624;11.698;2023-04-24T07:03:43;8.85;;;5.80;;
66927;SDS011;59882;45.624;11.698;2023-04-24T07:06:08;7.73;;;5.07;;
66927;SDS011;59882;45.624;11.698;2023-04-24T07:08:36;7.25;;;4.28;;
66927;SDS011;59882;45.624;11.698;2023-04-24T07:11:01;7.27;;;4.90;;
66927;SDS011;59882;45.624;11.698;2023-04-24T07:13:27;9.05;;;5.28;;
66927;SDS011;59882;45.624;11.698;2023-04-24T07:15:53;13.50;;;8.63;;
66927;SDS011;59882;45.624;11.698;2023-04-24T07:18:20;14.32;;;10.98;;
66927;SDS011;59882;45.624;11.698;2023-04-24T07:20:46;11.30;;;7.90;;
66927;SDS011;59882;45.624;11.698;2023-04-24T07:23:12;9.60;;;5.00;;
66927;SDS011;59882;45.624;11.698;2023-04-24T07:25:37;8.20;;;5.23;;
66927;SDS011;59882;45.624;11.698;2023-04-24T07:28:04;8.85;;;5.60;;
66927;SDS011;59882;45.624;11.698;2023-04-24T07:30:30;14.48;;;7.07;;
66927;SDS011;59882;45.624;11.698;2023-04-24T07:32:57;5.90;;;3.10;;
66927;SDS011;59882;45.624;11.698;2023-04-24T07:35:23;9.90;;;3.78;;
66927;SDS011;59882;45.624;11.698;2023-04-24T07:37:51;7.45;;;3.83;;
66927;SDS011;59882;45.624;11.698;2023-04-24T07:40:17;6.97;;;2.08;;
66927;SDS011;59882;45.624;11.698;2023-04-24T07:42:44;4.53;;;1.37;;
66927;SDS011;59882;45.624;11.698;2023-04-24T07:45:10;3.83;;;0.80;;
66927;SDS011;59882;45.624;11.698;2023-04-24T07:47:36;1.80;;;0.20;;
66927;SDS011;59882;45.624;11.698;2023-04-24T07:50:03;5.47;;;0.73;;
66927;SDS011;59882;45.624;11.698;2023-04-24T07:52:28;2.67;;;0.60;;
66927;SDS011;59882;45.624;11.698;2023-04-24T07:54:55;8.35;;;4.30;;
66927;SDS011;59882;45.624;11.698;2023-04-24T07:57:24;5.53;;;2.20;;
66927;SDS011;59882;45.624;11.698;2023-04-24T07:59:50;5.18;;;2.40;;
66927;SDS011;59882;45.624;11.698;2023-04-24T08:02:15;4.00;;;1.50;;
66927;SDS011;59882;45.624;11.698;2023-04-24T08:04:41;4.82;;;1.10;;
66927;SDS011;59882;45.624;11.698;2023-04-24T08:07:08;4.35;;;1.02;;
66927;SDS011;59882;45.624;11.698;2023-04-24T08:09:33;6.57;;;1.40;;
66927;SDS011;59882;45.624;11.698;2023-04-24T08:11:59;4.40;;;1.40;;
66927;SDS011;59882;45.624;11.698;2023-04-24T08:14:26;3.85;;;0.95;;
66927;SDS011;59882;45.624;11.698;2023-04-24T08:16:53;3.20;;;0.77;;
66927;SDS011;59882;45.624;11.698;2023-04-24T08:19:20;4.93;;;1.00;;
66927;SDS011;59882;45.624;11.698;2023-04-24T08:21:46;3.47;;;0.80;;
66927;SDS011;59882;45.624;11.698;2023-04-24T08:24:12;2.93;;;0.90;;
66927;SDS011;59882;45.624;11.698;2023-04-24T08:26:37;4.80;;;1.10;;
66927;SDS011;59882;45.624;11.698;2023-04-24T08:29:04;5.67;;;1.70;;
66927;SDS011;59882;45.624;11.698;2023-04-24T08:31:31;6.80;;;1.10;;
66927;SDS011;59882;45.624;11.698;2023-04-24T08:33:57;2.77;;;1.10;;
66927;SDS011;59882;45.624;11.698;2023-04-24T08:36:23;3.80;;;1.40;;
66927;SDS011;59882;45.624;11.698;2023-04-24T08:38:49;4.60;;;2.10;;
66927;SDS011;59882;45.624;11.698;2023-04-24T08:41:15;3.10;;;1.40;;
66927;SDS011;59882;45.624;11.698;2023-04-24T08:43:41;5.20;;;1.80;;
66927;SDS011;59882;45.624;11.698;2023-04-24T08:46:07;3.50;;;1.85;;
66927;SDS011;59882;45.624;11.698;2023-04-24T08:48:34;4.40;;;1.67;;
66927;SDS011;59882;45.624;11.698;2023-04-24T08:51:00;4.00;;;1.52;;
66927;SDS011;59882;45.624;11.698;2023-04-24T08:53:29;3.50;;;1.55;;
66927;SDS011;59882;45.624;11.698;2023-04-24T08:55:57;3.27;;;1.40;;
66927;SDS011;59882;45.624;11.698;2023-04-24T08:58:26;3.40;;;1.48;;
66927;SDS011;59882;45.624;11.698;2023-04-24T09:00:56;3.80;;;1.63;;
66927;SDS011;59882;45.624;11.698;2023-04-24T09:03:23;4.05;;;1.23;;
66927;SDS011;59882;45.624;11.698;2023-04-24T09:05:49;4.05;;;1.13;;
66927;SDS011;59882;45.624;11.698;2023-04-24T09:08:18;4.27;;;1.20;;
66927;SDS011;59882;45.624;11.698;2023-04-24T09:10:44;4.97;;;1.70;;
66927;SDS011;59882;45.624;11.698;2023-04-24T09:13:10;4.18;;;1.25;;
66927;SDS011;59882;45.624;11.698;2023-04-24T09:15:37;5.18;;;1.10;;
66927;SDS011;59882;45.624;11.698;2023-04-24T09:18:04;4.00;;;1.23;;
66927;SDS011;59882;45.624;11.698;2023-04-24T09:20:30;7.03;;;1.15;;
66927;SDS011;59882;45.624;11.698;2023-04-24T09:22:57;4.38;;;0.80;;
66927;SDS011;59882;45.624;11.698;2023-04-24T09:25:32;3.03;;;0.40;;
66927;SDS011;59882;45.624;11.698;2023-04-24T09:28:01;2.03;;;0.20;;
66927;SDS011;59882;45.624;11.698;2023-04-24T09:30:28;2.13;;;0.30;;
66927;SDS011;59882;45.624;11.698;2023-04-24T09:33:09;2.40;;;0.30;;
66927;SDS011;59882;45.624;11.698;2023-04-24T09:35:42;1.85;;;0.30;;
66927;SDS011;59882;45.624;11.698;2023-04-24T09:38:14;2.83;;;0.52;;
66927;SDS011;59882;45.624;11.698;2023-04-24T09:40:39;2.67;;;0.40;;
66927;SDS011;59882;45.624;11.698;2023-04-24T09:43:09;1.85;;;0.40;;
66927;SDS011;59882;45.624;11.698;2023-04-24T09:45:36;3.25;;;0.30;;
66927;SDS011;59882;45.624;11.698;2023-04-24T09:48:03;3.13;;;0.35;;
66927;SDS011;59882;45.624;11.698;2023-04-24T09:50:31;1.47;;;0.20;;
66927;SDS011;59882;45.624;11.698;2023-04-24T09:53:06;2.60;;;0.40;;
66927;SDS011;59882;45.624;11.698;2023-04-24T09:55:39;2.35;;;0.43;;
66927;SDS011;59882;45.624;11.698;2023-04-24T09:58:09;1.70;;;0.10;;
66927;SDS011;59882;45.624;11.698;2023-04-24T10:00:35;2.00;;;0.20;;
66927;SDS011;59882;45.624;11.698;2023-04-24T10:03:02;2.23;;;0.30;;
66927;SDS011;59882;45.624;11.698;2023-04-24T10:05:30;1.90;;;0.45;;
66927;SDS011;59882;45.624;11.698;2023-04-24T10:08:01;2.97;;;0.63;;
66927;SDS011;59882;45.624;11.698;2023-04-24T10:10:34;3.25;;;0.40;;
66927;SDS011;59882;45.624;11.698;2023-04-24T10:13:04;1.30;;;0.20;;
66927;SDS011;59882;45.624;11.698;2023-04-24T10:15:30;3.25;;;0.65;;
66927;SDS011;59882;45.624;11.698;2023-04-24T10:17:59;2.38;;;0.30;;
66927;SDS011;59882;45.624;11.698;2023-04-24T10:20:26;1.63;;;0.20;;
66927;SDS011;59882;45.624;11.698;2023-04-24T10:22:54;2.38;;;0.60;;
66927;SDS011;59882;45.624;11.698;2023-04-24T10:25:21;1.87;;;0.40;;
66927;SDS011;59882;45.624;11.698;2023-04-24T10:27:49;3.53;;;0.45;;
66927;SDS011;59882;45.624;11.698;2023-04-24T10:30:17;2.58;;;0.32;;
66927;SDS011;59882;45.624;11.698;2023-04-24T10:32:45;2.75;;;0.28;;
66927;SDS011;59882;45.624;11.698;2023-04-24T10:35:11;1.87;;;0.30;;
66927;SDS011;59882;45.624;11.698;2023-04-24T10:40:38;2.20;;;0.50;;
66927;SDS011;59882;45.624;11.698;2023-04-24T10:43:04;1.83;;;0.30;;
66927;SDS011;59882;45.624;11.698;2023-04-24T10:45:33;1.87;;;0.40;;
66927;SDS011;59882;45.624;11.698;2023-04-24T10:47:59;2.75;;;0.40;;
66927;SDS011;59882;45.624;11.698;2023-04-24T10:50:28;2.60;;;0.55;;
66927;SDS011;59882;45.624;11.698;2023-04-24T10:53:04;3.08;;;0.40;;
66927;SDS011;59882;45.624;11.698;2023-04-24T10:55:42;1.38;;;0.30;;
66927;SDS011;59882;45.624;11.698;2023-04-24T10:58:16;1.70;;;0.30;;
66927;SDS011;59882;45.624;11.698;2023-04-24T11:00:54;2.42;;;0.47;;
66927;SDS011;59882;45.624;11.698;2023-04-24T11:03:23;2.25;;;0.60;;
66927;SDS011;59882;45.624;11.698;2023-04-24T11:05:53;2.42;;;0.45;;
66927;SDS011;59882;45.624;11.698;2023-04-24T11:11:13;3.10;;;0.53;;
66927;SDS011;59882;45.624;11.698;2023-04-24T11:32:18;2.40;;;0.50;;
66927;SDS011;59882;45.624;11.698;2023-04-24T11:35:00;2.20;;;0.63;;
66927;SDS011;59882;45.624;11.698;2023-04-24T11:37:33;2.60;;;0.65;;
66927;SDS011;59882;45.624;11.698;2023-04-24T11:40:03;2.15;;;0.60;;
66927;SDS011;59882;45.624;11.698;2023-04-24T11:42:34;2.37;;;0.60;;
66927;SDS011;59882;45.624;11.698;2023-04-24T11:45:00;1.90;;;0.40;;
66927;SDS011;59882;45.624;11.698;2023-04-24T11:47:27;2.42;;;0.70;;
66927;SDS011;59882;45.624;11.698;2023-04-24T11:49:58;2.35;;;0.60;;
66927;SDS011;59882;45.624;11.698;2023-04-24T11:52:24;3.67;;;0.40;;
66927;SDS011;59882;45.624;11.698;2023-04-24T11:54:50;2.20;;;0.50;;
66927;SDS011;59882;45.624;11.698;2023-04-24T11:57:16;2.17;;;0.50;;
66927;SDS011;59882;45.624;11.698;2023-04-24T11:59:44;2.22;;;0.50;;
66927;SDS011;59882;45.624;11.698;2023-04-24T12:02:19;2.67;;;0.70;;
66927;SDS011;59882;45.624;11.698;2023-04-24T12:04:48;1.90;;;0.60;;
66927;SDS011;59882;45.624;11.698;2023-04-24T12:07:14;2.28;;;0.75;;
66927;SDS011;59882;45.624;11.698;2023-04-24T12:09:46;2.20;;;0.50;;
66927;SDS011;59882;45.624;11.698;2023-04-24T12:12:13;2.28;;;0.70;;
66927;SDS011;59882;45.624;11.698;2023-04-24T12:15:06;2.40;;;0.80;;
66927;SDS011;59882;45.624;11.698;2023-04-24T12:17:33;2.97;;;0.60;;
66927;SDS011;59882;45.624;11.698;2023-04-24T12:20:00;5.20;;;1.30;;
66927;SDS011;59882;45.624;11.698;2023-04-24T12:22:27;2.17;;;0.68;;
66927;SDS011;59882;45.624;11.698;2023-04-24T12:25:12;3.03;;;0.90;;
66927;SDS011;59882;45.624;11.698;2023-04-24T12:27:39;3.17;;;1.10;;
66927;SDS011;59882;45.624;11.698;2023-04-24T12:30:05;2.43;;;0.70;;
66927;SDS011;59882;45.624;11.698;2023-04-24T12:32:35;3.38;;;1.30;;
66927;SDS011;59882;45.624;11.698;2023-04-24T12:35:05;2.90;;;1.02;;
66927;SDS011;59882;45.624;11.698;2023-04-24T12:37:32;3.70;;;1.00;;
66927;SDS011;59882;45.624;11.698;2023-04-24T12:42:31;4.53;;;1.45;;
66927;SDS011;59882;45.624;11.698;2023-04-24T12:44:57;3.72;;;1.38;;
66927;SDS011;59882;45.624;11.698;2023-04-24T12:47:28;2.80;;;1.30;;
66927;SDS011;59882;45.624;11.698;2023-04-24T12:49:56;2.97;;;1.17;;
66927;SDS011;59882;45.624;11.698;2023-04-24T12:52:22;3.08;;;1.10;;
66927;SDS011;59882;45.624;11.698;2023-04-24T12:54:54;4.22;;;1.50;;
66927;SDS011;59882;45.624;11.698;2023-04-24T12:57:22;3.65;;;1.20;;
66927;SDS011;59882;45.624;11.698;2023-04-24T12:59:48;4.83;;;1.30;;
66927;SDS011;59882;45.624;11.698;2023-04-24T13:02:14;4.97;;;1.60;;
66927;SDS011;59882;45.624;11.698;2023-04-24T13:04:43;3.00;;;1.40;;
66927;SDS011;59882;45.624;11.698;2023-04-24T13:07:11;3.80;;;1.70;;
66927;SDS011;59882;45.624;11.698;2023-04-24T13:09:37;4.60;;;1.53;;
66927;SDS011;59882;45.624;11.698;2023-04-24T13:12:03;3.58;;;1.73;;
66927;SDS011;59882;45.624;11.698;2023-04-24T13:14:30;3.50;;;1.77;;
66927;SDS011;59882;45.624;11.698;2023-04-24T13:16:56;2.73;;;1.50;;
66927;SDS011;59882;45.624;11.698;2023-04-24T13:19:24;3.50;;;1.95;;
66927;SDS011;59882;45.624;11.698;2023-04-24T13:21:51;3.20;;;1.77;;
66927;SDS011;59882;45.624;11.698;2023-04-24T13:24:17;4.80;;;1.70;;
66927;SDS011;59882;45.624;11.698;2023-04-24T13:26:43;2.60;;;1.60;;
66927;SDS011;59882;45.624;11.698;2023-04-24T13:29:08;2.83;;;1.60;;
66927;SDS011;59882;45.624;11.698;2023-04-24T13:31:34;4.35;;;1.90;;
66927;SDS011;59882;45.624;11.698;2023-04-24T13:34:01;3.00;;;1.85;;
66927;SDS011;59882;45.624;11.698;2023-04-24T13:36:27;4.60;;;2.40;;
66927;SDS011;59882;45.624;11.698;2023-04-24T13:38:53;4.60;;;2.60;;
66927;SDS011;59882;45.624;11.698;2023-04-24T13:41:18;3.47;;;2.37;;
66927;SDS011;59882;45.624;11.698;2023-04-24T13:43:44;3.28;;;2.38;;
66927;SDS011;59882;45.624;11.698;2023-04-24T13:46:10;3.87;;;2.77;;
66927;SDS011;59882;45.624;11.698;2023-04-24T13:48:35;3.78;;;3.08;;
66927;SDS011;59882;45.624;11.698;2023-04-24T13:51:01;4.07;;;3.15;;
66927;SDS011;59882;45.624;11.698;2023-04-24T13:53:27;4.15;;;3.13;;
66927;SDS011;59882;45.624;11.698;2023-04-24T13:55:52;4.60;;;2.70;;
66927;SDS011;59882;45.624;11.698;2023-04-24T13:58:18;4.20;;;3.17;;
66927;SDS011;59882;45.624;11.698;2023-04-24T14:00:44;4.35;;;3.50;;
66927;SDS011;59882;45.624;11.698;2023-04-24T14:03:09;4.87;;;2.80;;
66927;SDS011;59882;45.624;11.698;2023-04-24T14:05:35;4.55;;;3.33;;
66927;SDS011;59882;45.624;11.698;2023-04-24T14:08:01;3.70;;;2.78;;
66927;SDS011;59882;45.624;11.698;2023-04-24T14:10:27;3.33;;;2.50;;
66927;SDS011;59882;45.624;11.698;2023-04-24T14:12:53;3.67;;;2.50;;
66927;SDS011;59882;45.624;11.698;2023-04-24T14:15:19;3.30;;;2.43;;
66927;SDS011;59882;45.624;11.698;2023-04-24T14:17:44;3.60;;;3.08;;
66927;SDS011;59882;45.624;11.698;2023-04-24T14:20:11;3.40;;;2.50;;
66927;SDS011;59882;45.624;11.698;2023-04-24T14:22:37;3.20;;;2.58;;
66927;SDS011;59882;45.624;11.698;2023-04-24T14:25:03;4.83;;;2.93;;
66927;SDS011;59882;45.624;11.698;2023-04-24T14:27:30;3.33;;;2.65;;
66927;SDS011;59882;45.624;11.698;2023-04-24T14:29:57;3.60;;;3.08;;
66927;SDS011;59882;45.624;11.698;2023-04-24T14:32:22;3.53;;;3.00;;
66927;SDS011;59882;45.624;11.698;2023-04-24T14:34:48;3.50;;;2.85;;
66927;SDS011;59882;45.624;11.698;2023-04-24T14:37:14;3.50;;;2.83;;
66927;SDS011;59882;45.624;11.698;2023-04-24T14:39:40;3.63;;;2.63;;
66927;SDS011;59882;45.624;11.698;2023-04-24T14:42:05;3.88;;;3.15;;
66927;SDS011;59882;45.624;11.698;2023-04-24T14:44:31;3.50;;;3.03;;
66927;SDS011;59882;45.624;11.698;2023-04-24T14:46:58;4.35;;;2.88;;
66927;SDS011;59882;45.624;11.698;2023-04-24T14:49:23;4.17;;;3.10;;